TimeMST,TemperatureF,Dew PointF,Humidity,Sea Level PressureIn,VisibilityMPH,Wind Direction,Wind SpeedMPH,Gust SpeedMPH,PrecipitationIn,Events,Conditions,WindDirDegrees,DateUTC
12:48 AM,33.1,27.0,78,30.08,-9999.0,West,10.4,-,N/A,,Unknown,270,2013-02-16 07:48:00
1:48 AM,32.0,26.1,79,30.08,-9999.0,West,8.1,-,N/A,,Unknown,280,2013-02-16 08:48:00
2:48 AM,30.0,25.0,82,30.07,-9999.0,West,6.9,-,N/A,,Unknown,260,2013-02-16 09:48:00
3:48 AM,33.1,27.0,78,30.04,-9999.0,West,12.7,-,N/A,,Unknown,270,2013-02-16 10:48:00
4:48 AM,32.0,26.1,79,30.03,-9999.0,West,11.5,-,N/A,,Unknown,280,2013-02-16 11:48:00
5:48 AM,33.1,26.1,75,30.03,-9999.0,West,9.2,-,N/A,,Unknown,280,2013-02-16 12:48:00
6:48 AM,28.0,24.1,85,30.04,-9999.0,WNW,3.5,-,N/A,,Unknown,290,2013-02-16 13:48:00
7:48 AM,32.0,27.0,82,30.02,-9999.0,West,6.9,-,N/A,,Unknown,270,2013-02-16 14:48:00
8:48 AM,39.0,28.9,67,30.01,-9999.0,West,6.9,-,N/A,,Unknown,270,2013-02-16 15:48:00
9:48 AM,44.1,28.9,55,29.99,-9999.0,WNW,10.4,-,N/A,,Unknown,290,2013-02-16 16:48:00
10:48 AM,48.0,28.9,48,29.98,-9999.0,West,10.4,-,N/A,,Unknown,270,2013-02-16 17:48:00
1:48 PM,55.0,28.9,37,29.90,-9999.0,WNW,15.0,20.7,N/A,,Unknown,290,2013-02-16 20:48:00
2:48 PM,55.0,28.0,35,29.87,-9999.0,WNW,13.8,-,N/A,,Unknown,300,2013-02-16 21:48:00
3:48 PM,55.0,27.0,34,29.85,-9999.0,WNW,10.4,-,N/A,,Unknown,300,2013-02-16 22:48:00
4:48 PM,48.9,27.0,43,29.84,-9999.0,Calm,Calm,-,N/A,,Unknown,0,2013-02-16 23:48:00
5:48 PM,39.9,26.1,58,29.85,-9999.0,Calm,Calm,-,N/A,,Unknown,0,2013-02-17 00:48:00
6:48 PM,32.0,24.1,73,29.83,-9999.0,Calm,Calm,-,N/A,,Unknown,0,2013-02-17 01:48:00
7:48 PM,28.0,23.0,81,29.83,-9999.0,Calm,Calm,-,N/A,,Unknown,0,2013-02-17 02:48:00
8:48 PM,28.9,24.1,82,29.80,-9999.0,NW,3.5,-,N/A,,Unknown,310,2013-02-17 03:48:00
9:48 PM,27.0,24.1,89,29.78,-9999.0,Calm,Calm,-,N/A,,Unknown,0,2013-02-17 04:48:00
10:48 PM,28.0,25.0,88,29.74,-9999.0,NW,6.9,-,N/A,,Unknown,310,2013-02-17 05:48:00
11:48 PM,32.0,27.0,82,29.70,-9999.0,WNW,5.8,-,N/A,,Unknown,300,2013-02-17 06:48:00